sensor_id;sensor_type;location;lat;lon;timestamp;pressure;altitude;pressure_sealevel;temperature;humidity
75438;BME280;64015;49.392;15.582;2022-10-13T00:01:28;96454.53;;;1.62;100.00
75438;BME280;64015;49.392;15.582;2022-10-13T00:03:54;96455.31;;;1.56;100.00
75438;BME280;64015;49.392;15.582;2022-10-13T00:06:23;96460.09;;;1.52;100.00
75438;BME280;64015;49.392;15.582;2022-10-13T00:08:59;96466.47;;;1.49;100.00
75438;BME280;64015;49.392;15.582;2022-10-13T00:11:32;96458.28;;;1.46;100.00
75438;BME280;64015;49.392;15.582;2022-10-13T02:56:17;96375.94;;;0.43;100.00
75438;BME280;64015;49.392;15.582;2022-10-13T02:59:11;96385.16;;;0.46;100.00
75438;BME280;64015;49.392;15.582;2022-10-13T03:01:37;96384.94;;;0.47;100.00
75438;BME280;64015;49.392;15.582;2022-10-13T03:04:24;96378.34;;;0.45;100.00
75438;BME280;64015;49.392;15.582;2022-10-13T03:07:14;96388.34;;;0.48;100.00
75438;BME280;64015;49.392;15.582;2022-10-13T03:09:46;96385.94;;;0.46;100.00
75438;BME280;64015;49.392;15.582;2022-10-13T03:12:14;96384.34;;;0.45;100.00
75438;BME280;64015;49.392;15.582;2022-10-13T03:14:39;96386.94;;;0.45;100.00
75438;BME280;64015;49.392;15.582;2022-10-13T03:17:17;96381.94;;;0.44;100.00
75438;BME280;64015;49.392;15.582;2022-10-13T03:19:43;96387.75;;;0.46;100.00
75438;BME280;64015;49.392;15.582;2022-10-13T03:22:18;96387.06;;;0.37;100.00
75438;BME280;64015;49.392;15.582;2022-10-13T03:24:46;96382.66;;;0.37;100.00
75438;BME280;64015;49.392;15.582;2022-10-13T03:30:48;96389.47;;;0.38;100.00
75438;BME280;64015;49.392;15.582;2022-10-13T03:34:00;96388.06;;;0.36;100.00
75438;BME280;64015;49.392;15.582;2022-10-13T03:36:29;96382.44;;;0.32;100.00
75438;BME280;64015;49.392;15.582;2022-10-13T03:39:04;96380.50;;;0.41;100.00
75438;BME280;64015;49.392;15.582;2022-10-13T03:45:23;96387.44;;;0.90;100.00
75438;BME280;64015;49.392;15.582;2022-10-13T03:47:53;96387.88;;;1.00;100.00
75438;BME280;64015;49.392;15.582;2022-10-13T03:50:19;96383.53;;;1.07;100.00
75438;BME280;64015;49.392;15.582;2022-10-13T03:52:48;96379.16;;;1.14;100.00
75438;BME280;64015;49.392;15.582;2022-10-13T03:55:32;96383.81;;;1.25;100.00
75438;BME280;64015;49.392;15.582;2022-10-13T03:58:03;96370.97;;;1.17;100.00
75438;BME280;64015;49.392;15.582;2022-10-13T04:01:22;96372.31;;;1.06;100.00
75438;BME280;64015;49.392;15.582;2022-10-13T04:03:34;96385.28;;;1.00;100.00
75438;BME280;64015;49.392;15.582;2022-10-13T04:12:30;96380.88;;;0.66;100.00
75438;BME280;64015;49.392;15.582;2022-10-13T04:18:51;96375.22;;;0.56;100.00
75438;BME280;64015;49.392;15.582;2022-10-13T04:21:17;96382.78;;;0.51;100.00
75438;BME280;64015;49.392;15.582;2022-10-13T04:31:00;96377.53;;;0.44;100.00
75438;BME280;64015;49.392;15.582;2022-10-13T04:33:44;96375.13;;;0.43;100.00
75438;BME280;64015;49.392;15.582;2022-10-13T04:36:12;96378.50;;;0.36;100.00
75438;BME280;64015;49.392;15.582;2022-10-13T04:38:38;96379.88;;;0.39;100.00
75438;BME280;64015;49.392;15.582;2022-10-13T04:41:05;96375.69;;;0.38;100.00
75438;BME280;64015;49.392;15.582;2022-10-13T04:43:47;96369.47;;;0.32;100.00
75438;BME280;64015;49.392;15.582;2022-10-13T04:46:44;96373.84;;;0.32;100.00
75438;BME280;64015;49.392;15.582;2022-10-13T04:49:16;96373.00;;;0.25;100.00
75438;BME280;64015;49.392;15.582;2022-10-13T04:51:42;96374.59;;;0.26;100.00
75438;BME280;64015;49.392;15.582;2022-10-13T04:54:08;96376.94;;;0.21;100.00
75438;BME280;64015;49.392;15.582;2022-10-13T04:56:37;96365.94;;;0.19;100.00
75438;BME280;64015;49.392;15.582;2022-10-13T04:59:03;96362.00;;;0.23;100.00
75438;BME280;64015;49.392;15.582;2022-10-13T05:01:41;96357.00;;;0.21;100.00
75438;BME280;64015;49.392;15.582;2022-10-13T05:04:23;96352.63;;;0.22;100.00
75438;BME280;64015;49.392;15.582;2022-10-13T05:06:51;96364.41;;;0.24;100.00
75438;BME280;64015;49.392;15.582;2022-10-13T05:09:17;96356.63;;;0.24;100.00
75438;BME280;64015;49.392;15.582;2022-10-13T05:11:59;96355.38;;;0.20;100.00
75438;BME280;64015;49.392;15.582;2022-10-13T05:18:41;96355.78;;;0.17;100.00
75438;BME280;64015;49.392;15.582;2022-10-13T05:21:43;96348.19;;;0.16;100.00
75438;BME280;64015;49.392;15.582;2022-10-13T05:24:09;96355.38;;;0.20;100.00
75438;BME280;64015;49.392;15.582;2022-10-13T05:26:39;96359.03;;;0.26;100.00
75438;BME280;64015;49.392;15.582;2022-10-13T05:29:26;96359.63;;;0.28;100.00
75438;BME280;64015;49.392;15.582;2022-10-13T05:31:52;96364.81;;;0.28;100.00
75438;BME280;64015;49.392;15.582;2022-10-13T05:34:19;96364.72;;;0.36;100.00
75438;BME280;64015;49.392;15.582;2022-10-13T05:36:45;96364.31;;;0.39;100.00
75438;BME280;64015;49.392;15.582;2022-10-13T05:39:17;96361.13;;;0.37;100.00
75438;BME280;64015;49.392;15.582;2022-10-13T05:45:32;96350.75;;;0.37;100.00
75438;BME280;64015;49.392;15.582;2022-10-13T05:48:00;96364.13;;;0.41;100.00
75438;BME280;64015;49.392;15.582;2022-10-13T05:50:27;96358.38;;;0.45;100.00
75438;BME280;64015;49.392;15.582;2022-10-13T05:53:40;96358.44;;;0.52;100.00
75438;BME280;64015;49.392;15.582;2022-10-13T05:57:16;96348.66;;;0.54;100.00
75438;BME280;64015;49.392;15.582;2022-10-13T06:01:06;96349.72;;;0.66;100.00
75438;BME280;64015;49.392;15.582;2022-10-13T06:03:58;96352.94;;;0.68;100.00
75438;BME280;64015;49.392;15.582;2022-10-13T06:06:25;96348.63;;;0.82;100.00
75438;BME280;64015;49.392;15.582;2022-10-13T06:08:52;96351.22;;;0.82;100.00
75438;BME280;64015;49.392;15.582;2022-10-13T06:15:32;96363.47;;;0.94;100.00
75438;BME280;64015;49.392;15.582;2022-10-13T06:22:25;96353.94;;;1.08;100.00
75438;BME280;64015;49.392;15.582;2022-10-13T06:25:47;96366.78;;;1.16;100.00
75438;BME280;64015;49.392;15.582;2022-10-13T06:28:20;96355.19;;;1.19;100.00
75438;BME280;64015;49.392;15.582;2022-10-13T06:30:47;96365.03;;;1.30;100.00
75438;BME280;64015;49.392;15.582;2022-10-13T06:33:23;96353.22;;;1.27;100.00
75438;BME280;64015;49.392;15.582;2022-10-13T06:35:51;96365.25;;;1.35;100.00
75438;BME280;64015;49.392;15.582;2022-10-13T06:38:53;96360.50;;;1.45;100.00
75438;BME280;64015;49.392;15.582;2022-10-13T06:41:19;96361.91;;;1.47;100.00
75438;BME280;64015;49.392;15.582;2022-10-13T06:44:13;96366.94;;;1.62;100.00
75438;BME280;64015;49.392;15.582;2022-10-13T06:50:20;96362.78;;;1.87;100.00
75438;BME280;64015;49.392;15.582;2022-10-13T06:52:49;96362.00;;;2.00;100.00
75438;BME280;64015;49.392;15.582;2022-10-13T06:55:26;96357.03;;;2.12;100.00
75438;BME280;64015;49.392;15.582;2022-10-13T07:01:41;96364.41;;;2.61;100.00
75438;BME280;64015;49.392;15.582;2022-10-13T07:04:08;96361.16;;;2.79;100.00
75438;BME280;64015;49.392;15.582;2022-10-13T07:06:36;96354.09;;;2.99;100.00
75438;BME280;64015;49.392;15.582;2022-10-13T07:09:39;96341.97;;;3.31;100.00
75438;BME280;64015;49.392;15.582;2022-10-13T07:12:05;96345.06;;;3.53;100.00
75438;BME280;64015;49.392;15.582;2022-10-13T07:17:56;96353.31;;;3.88;100.00
75438;BME280;64015;49.392;15.582;2022-10-13T07:20:23;96348.00;;;4.01;100.00
75438;BME280;64015;49.392;15.582;2022-10-13T07:22:48;96344.13;;;4.10;100.00
75438;BME280;64015;49.392;15.582;2022-10-13T07:25:36;96339.34;;;4.32;100.00
75438;BME280;64015;49.392;15.582;2022-10-13T07:28:19;96329.03;;;4.37;100.00
75438;BME280;64015;49.392;15.582;2022-10-13T07:30:51;96340.41;;;4.49;100.00
75438;BME280;64015;49.392;15.582;2022-10-13T07:33:41;96331.78;;;4.67;100.00
75438;BME280;64015;49.392;15.582;2022-10-13T07:36:08;96335.31;;;4.79;99.43
75438;BME280;64015;49.392;15.582;2022-10-13T07:42:07;96322.16;;;4.85;98.67
75438;BME280;64015;49.392;15.582;2022-10-13T07:44:32;96324.06;;;4.97;100.00
75438;BME280;64015;49.392;15.582;2022-10-13T07:47:04;96332.19;;;5.07;100.00
75438;BME280;64015;49.392;15.582;2022-10-13T07:49:29;96321.53;;;5.08;100.00
75438;BME280;64015;49.392;15.582;2022-10-13T07:51:55;96320.06;;;5.12;100.00
75438;BME280;64015;49.392;15.582;2022-10-13T07:54:21;96322.53;;;5.25;100.00
75438;BME280;64015;49.392;15.582;2022-10-13T07:57:04;96321.00;;;5.36;100.00
75438;BME280;64015;49.392;15.582;2022-10-13T07:59:31;96307.94;;;5.48;100.00
75438;BME280;64015;49.392;15.582;2022-10-13T08:01:58;96309.47;;;5.55;100.00
75438;BME280;64015;49.392;15.582;2022-10-13T08:04:46;96314.41;;;5.75;100.00
75438;BME280;64015;49.392;15.582;2022-10-13T08:07:11;96302.09;;;5.94;100.00
75438;BME280;64015;49.392;15.582;2022-10-13T08:09:37;96309.19;;;6.17;99.77
75438;BME280;64015;49.392;15.582;2022-10-13T08:12:03;96301.34;;;6.40;98.85
75438;BME280;64015;49.392;15.582;2022-10-13T08:14:30;96304.88;;;6.69;96.78
75438;BME280;64015;49.392;15.582;2022-10-13T08:16:56;96299.13;;;7.07;96.47
75438;BME280;64015;49.392;15.582;2022-10-13T08:19:26;96300.44;;;7.33;94.02
75438;BME280;64015;49.392;15.582;2022-10-13T08:22:09;96292.56;;;7.61;93.69
75438;BME280;64015;49.392;15.582;2022-10-13T08:24:40;96298.75;;;7.83;92.30
75438;BME280;64015;49.392;15.582;2022-10-13T08:27:09;96293.75;;;7.99;91.68
75438;BME280;64015;49.392;15.582;2022-10-13T08:29:35;96297.28;;;8.21;92.90
75438;BME280;64015;49.392;15.582;2022-10-13T08:32:01;96302.78;;;8.53;91.84
75438;BME280;64015;49.392;15.582;2022-10-13T08:34:27;96302.19;;;8.84;91.26
75438;BME280;64015;49.392;15.582;2022-10-13T08:36:53;96299.75;;;9.21;88.47
75438;BME280;64015;49.392;15.582;2022-10-13T08:39:21;96294.50;;;9.43;85.82
75438;BME280;64015;49.392;15.582;2022-10-13T08:44:59;96290.88;;;10.03;84.06
75438;BME280;64015;49.392;15.582;2022-10-13T08:47:45;96288.59;;;10.43;84.54
75438;BME280;64015;49.392;15.582;2022-10-13T08:50:17;96289.13;;;10.82;83.58
75438;BME280;64015;49.392;15.582;2022-10-13T08:52:49;96284.78;;;11.13;81.65
75438;BME280;64015;49.392;15.582;2022-10-13T08:55:19;96280.13;;;11.41;79.65
75438;BME280;64015;49.392;15.582;2022-10-13T08:57:47;96280.72;;;11.63;77.64
75438;BME280;64015;49.392;15.582;2022-10-13T09:00:12;96283.72;;;11.82;77.30
75438;BME280;64015;49.392;15.582;2022-10-13T09:02:38;96278.19;;;12.04;77.74
75438;BME280;64015;49.392;15.582;2022-10-13T09:05:13;96271.84;;;12.20;77.89
75438;BME280;64015;49.392;15.582;2022-10-13T09:07:43;96272.91;;;12.39;78.32
75438;BME280;64015;49.392;15.582;2022-10-13T09:10:10;96271.81;;;12.65;77.36
75438;BME280;64015;49.392;15.582;2022-10-13T09:12:36;96271.50;;;12.92;75.98
75438;BME280;64015;49.392;15.582;2022-10-13T09:15:06;96275.41;;;13.20;76.53
75438;BME280;64015;49.392;15.582;2022-10-13T09:17:35;96265.75;;;13.50;74.40
75438;BME280;64015;49.392;15.582;2022-10-13T09:20:02;96259.44;;;13.85;74.52
75438;BME280;64015;49.392;15.582;2022-10-13T09:22:36;96270.59;;;14.20;72.47
75438;BME280;64015;49.392;15.582;2022-10-13T09:30:36;96278.75;;;13.95;70.70
75438;BME280;64015;49.392;15.582;2022-10-13T09:35:48;96269.50;;;14.61;70.03
75438;BME280;64015;49.392;15.582;2022-10-13T09:38:22;96263.41;;;14.84;69.00
75438;BME280;64015;49.392;15.582;2022-10-13T09:43:57;96253.41;;;15.47;66.32
75438;BME280;64015;49.392;15.582;2022-10-13T09:46:32;96251.13;;;15.59;66.45
75438;BME280;64015;49.392;15.582;2022-10-13T09:49:02;96252.81;;;15.50;64.94
75438;BME280;64015;49.392;15.582;2022-10-13T09:51:33;96256.97;;;15.14;67.75
75438;BME280;64015;49.392;15.582;2022-10-13T09:53:59;96252.06;;;15.02;68.05
75438;BME280;64015;49.392;15.582;2022-10-13T09:56:30;96256.06;;;14.76;68.04
75438;BME280;64015;49.392;15.582;2022-10-13T10:01:45;96256.50;;;14.25;70.26
75438;BME280;64015;49.392;15.582;2022-10-13T10:04:15;96266.50;;;14.33;71.56
75438;BME280;64015;49.392;15.582;2022-10-13T10:07:09;96262.88;;;14.24;71.28
75438;BME280;64015;49.392;15.582;2022-10-13T10:09:45;96257.22;;;14.36;72.57
75438;BME280;64015;49.392;15.582;2022-10-13T10:12:17;96242.97;;;16.07;65.65
75438;BME280;64015;49.392;15.582;2022-10-13T10:14:47;96232.66;;;18.86;54.86
75438;BME280;64015;49.392;15.582;2022-10-13T10:20:25;96226.16;;;19.92;49.56
75438;BME280;64015;49.392;15.582;2022-10-13T10:23:35;96232.81;;;19.47;50.04
75438;BME280;64015;49.392;15.582;2022-10-13T10:26:56;96227.75;;;18.80;51.90
75438;BME280;64015;49.392;15.582;2022-10-13T10:29:05;96224.09;;;18.00;54.54
75438;BME280;64015;49.392;15.582;2022-10-13T10:34:44;96215.56;;;17.12;57.78
75438;BME280;64015;49.392;15.582;2022-10-13T10:37:18;96208.25;;;18.79;52.89
75438;BME280;64015;49.392;15.582;2022-10-13T10:45:46;96198.97;;;18.77;52.09
75438;BME280;64015;49.392;15.582;2022-10-13T10:48:37;96199.16;;;18.05;54.30
75438;BME280;64015;49.392;15.582;2022-10-13T10:51:08;96195.47;;;17.42;56.25
75438;BME280;64015;49.392;15.582;2022-10-13T10:59:25;96173.03;;;21.84;43.46
75438;BME280;64015;49.392;15.582;2022-10-13T11:04:45;96165.19;;;19.89;47.81
75438;BME280;64015;49.392;15.582;2022-10-13T11:17:49;96152.88;;;20.69;44.92
75438;BME280;64015;49.392;15.582;2022-10-13T11:25:39;96155.50;;;21.45;44.84
75438;BME280;64015;49.392;15.582;2022-10-13T11:30:51;96129.09;;;25.53;34.79
75438;BME280;64015;49.392;15.582;2022-10-13T11:33:50;96135.22;;;24.52;35.73
75438;BME280;64015;49.392;15.582;2022-10-13T11:49:29;96117.81;;;25.32;34.21
75438;BME280;64015;49.392;15.582;2022-10-13T11:57:20;96111.38;;;22.90;38.24
75438;BME280;64015;49.392;15.582;2022-10-13T11:59:47;96119.41;;;21.55;42.19
75438;BME280;64015;49.392;15.582;2022-10-13T12:02:15;96110.72;;;21.08;44.06
75438;BME280;64015;49.392;15.582;2022-10-13T12:04:41;96107.56;;;21.77;42.32
75438;BME280;64015;49.392;15.582;2022-10-13T12:07:10;96090.94;;;23.94;36.89
75438;BME280;64015;49.392;15.582;2022-10-13T12:09:54;96094.41;;;25.55;34.37
75438;BME280;64015;49.392;15.582;2022-10-13T12:12:22;96082.94;;;26.42;31.94
75438;BME280;64015;49.392;15.582;2022-10-13T12:14:50;96090.75;;;24.93;34.83
75438;BME280;64015;49.392;15.582;2022-10-13T12:17:22;96086.22;;;24.66;35.50
75438;BME280;64015;49.392;15.582;2022-10-13T12:19:48;96086.13;;;24.78;35.83
75438;BME280;64015;49.392;15.582;2022-10-13T12:22:15;96074.53;;;24.93;35.53
75438;BME280;64015;49.392;15.582;2022-10-13T12:24:41;96073.75;;;25.62;34.20
75438;BME280;64015;49.392;15.582;2022-10-13T12:27:14;96077.00;;;26.33;33.12
75438;BME280;64015;49.392;15.582;2022-10-13T12:29:44;96080.53;;;27.09;30.49
75438;BME280;64015;49.392;15.582;2022-10-13T12:32:29;96077.53;;;26.42;32.25
75438;BME280;64015;49.392;15.582;2022-10-13T12:34:55;96077.88;;;26.18;31.96
75438;BME280;64015;49.392;15.582;2022-10-13T12:37:32;96083.63;;;24.22;35.55
75438;BME280;64015;49.392;15.582;2022-10-13T12:39:59;96084.91;;;22.56;39.81
75438;BME280;64015;49.392;15.582;2022-10-13T12:42:30;96079.72;;;22.26;40.68
75438;BME280;64015;49.392;15.582;2022-10-13T12:45:01;96087.28;;;20.75;44.75
75438;BME280;64015;49.392;15.582;2022-10-13T12:52:46;96083.63;;;19.78;48.05
75438;BME280;64015;49.392;15.582;2022-10-13T12:55:16;96083.56;;;21.18;45.38
75438;BME280;64015;49.392;15.582;2022-10-13T12:57:51;96071.78;;;22.54;40.73
75438;BME280;64015;49.392;15.582;2022-10-13T13:00:40;96071.44;;;23.57;38.43
75438;BME280;64015;49.392;15.582;2022-10-13T13:03:21;96078.81;;;22.34;40.85
75438;BME280;64015;49.392;15.582;2022-10-13T13:05:49;96086.22;;;20.12;46.27
75438;BME280;64015;49.392;15.582;2022-10-13T13:08:29;96079.84;;;19.10;50.39
75438;BME280;64015;49.392;15.582;2022-10-13T13:11:00;96081.56;;;18.89;50.36
75438;BME280;64015;49.392;15.582;2022-10-13T13:13:27;96075.28;;;19.80;48.53
75438;BME280;64015;49.392;15.582;2022-10-13T13:15:53;96070.38;;;22.00;42.57
75438;BME280;64015;49.392;15.582;2022-10-13T13:18:39;96066.63;;;23.62;38.37
75438;BME280;64015;49.392;15.582;2022-10-13T13:21:11;96062.59;;;23.56;38.42
75438;BME280;64015;49.392;15.582;2022-10-13T13:23:37;96058.34;;;22.91;39.58
75438;BME280;64015;49.392;15.582;2022-10-13T13:26:22;96047.78;;;23.78;38.89
75438;BME280;64015;49.392;15.582;2022-10-13T13:28:50;96051.50;;;23.05;38.96
75438;BME280;64015;49.392;15.582;2022-10-13T13:31:19;96053.63;;;23.40;38.41
75438;BME280;64015;49.392;15.582;2022-10-13T13:33:45;96045.66;;;23.99;38.31
75438;BME280;64015;49.392;15.582;2022-10-13T13:36:28;96046.72;;;24.58;35.98
75438;BME280;64015;49.392;15.582;2022-10-13T13:38:54;96038.59;;;25.24;34.80
75438;BME280;64015;49.392;15.582;2022-10-13T13:41:23;96042.59;;;25.69;33.34
75438;BME280;64015;49.392;15.582;2022-10-13T13:43:52;96046.91;;;24.33;36.46
75438;BME280;64015;49.392;15.582;2022-10-13T13:46:20;96055.31;;;22.44;41.01
75438;BME280;64015;49.392;15.582;2022-10-13T13:48:47;96059.84;;;20.32;45.63
75438;BME280;64015;49.392;15.582;2022-10-13T13:51:13;96060.81;;;19.46;49.42
75438;BME280;64015;49.392;15.582;2022-10-13T13:53:48;96053.41;;;19.00;50.07
75438;BME280;64015;49.392;15.582;2022-10-13T13:56:16;96053.22;;;19.91;47.45
75438;BME280;64015;49.392;15.582;2022-10-13T13:58:42;96058.88;;;20.45;45.84
75438;BME280;64015;49.392;15.582;2022-10-13T14:01:40;96058.97;;;20.57;46.83
75438;BME280;64015;49.392;15.582;2022-10-13T14:04:51;96055.94;;;19.39;49.83
75438;BME280;64015;49.392;15.582;2022-10-13T14:07:17;96065.56;;;18.18;52.94
75438;BME280;64015;49.392;15.582;2022-10-13T14:09:46;96059.78;;;17.63;55.37
75438;BME280;64015;49.392;15.582;2022-10-13T14:12:34;96061.59;;;16.96;58.61
75438;BME280;64015;49.392;15.582;2022-10-13T14:15:07;96069.34;;;16.70;59.57
75438;BME280;64015;49.392;15.582;2022-10-13T14:17:34;96077.22;;;16.34;61.64
75438;BME280;64015;49.392;15.582;2022-10-13T14:20:06;96075.22;;;15.98;62.88
75438;BME280;64015;49.392;15.582;2022-10-13T14:22:41;96061.97;;;15.80;63.56
75438;BME280;64015;49.392;15.582;2022-10-13T14:25:07;96064.19;;;15.59;64.68
75438;BME280;64015;49.392;15.582;2022-10-13T14:27:34;96058.22;;;15.29;65.18
75438;BME280;64015;49.392;15.582;2022-10-13T14:30:07;96059.91;;;15.07;66.78
75438;BME280;64015;49.392;15.582;2022-10-13T14:32:35;96059.03;;;14.92;67.07
75438;BME280;64015;49.392;15.582;2022-10-13T14:35:01;96064.06;;;14.94;67.21
75438;BME280;64015;49.392;15.582;2022-10-13T14:37:26;96064.06;;;14.75;68.36
75438;BME280;64015;49.392;15.582;2022-10-13T14:39:52;96058.28;;;14.49;68.90
75438;BME280;64015;49.392;15.582;2022-10-13T14:42:27;96057.69;;;14.29;69.88
75438;BME280;64015;49.392;15.582;2022-10-13T14:44:52;96052.63;;;14.32;70.50
75438;BME280;64015;49.392;15.582;2022-10-13T14:47:18;96047.44;;;14.46;69.83
75438;BME280;64015;49.392;15.582;2022-10-13T14:49:44;96054.50;;;14.32;70.89
75438;BME280;64015;49.392;15.582;2022-10-13T14:52:09;96047.50;;;14.17;71.11
75438;BME280;64015;49.392;15.582;2022-10-13T14:54:44;96040.28;;;13.99;72.30
75438;BME280;64015;49.392;15.582;2022-10-13T14:57:14;96051.09;;;13.78;72.70
75438;BME280;64015;49.392;15.582;2022-10-13T14:59:40;96043.03;;;13.60;73.33
75438;BME280;64015;49.392;15.582;2022-10-13T15:02:09;96055.13;;;13.37;74.83
75438;BME280;64015;49.392;15.582;2022-10-13T15:04:35;96052.22;;;13.38;74.59
75438;BME280;64015;49.392;15.582;2022-10-13T15:07:00;96041.44;;;13.30;74.70
75438;BME280;64015;49.392;15.582;2022-10-13T15:09:29;96050.44;;;13.29;75.66
75438;BME280;64015;49.392;15.582;2022-10-13T15:15:56;96043.88;;;12.77;78.07
75438;BME280;64015;49.392;15.582;2022-10-13T15:18:22;96047.31;;;12.78;78.09
75438;BME280;64015;49.392;15.582;2022-10-13T15:20:51;96045.00;;;12.66;78.81
75438;BME280;64015;49.392;15.582;2022-10-13T15:23:29;96039.16;;;12.69;78.99
75438;BME280;64015;49.392;15.582;2022-10-13T15:25:56;96047.34;;;12.73;79.28
75438;BME280;64015;49.392;15.582;2022-10-13T15:28:29;96041.56;;;12.60;79.30
75438;BME280;64015;49.392;15.582;2022-10-13T15:30:58;96034.41;;;12.66;78.81
75438;BME280;64015;49.392;15.582;2022-10-13T15:33:23;96047.91;;;12.64;79.54
75438;BME280;64015;49.392;15.582;2022-10-13T15:35:51;96036.84;;;12.57;79.62
75438;BME280;64015;49.392;15.582;2022-10-13T15:38:18;96041.56;;;12.60;78.38
75438;BME280;64015;49.392;15.582;2022-10-13T15:40:44;96040.56;;;12.51;78.65
75438;BME280;64015;49.392;15.582;2022-10-13T15:43:10;96035.81;;;12.48;78.63
75438;BME280;64015;49.392;15.582;2022-10-13T15:45:39;96047.78;;;12.41;79.55
75438;BME280;64015;49.392;15.582;2022-10-13T15:48:06;96036.59;;;12.54;77.42
75438;BME280;64015;49.392;15.582;2022-10-13T15:50:32;96027.63;;;12.50;77.40
75438;BME280;64015;49.392;15.582;2022-10-13T15:52:58;96032.38;;;12.48;77.89
75438;BME280;64015;49.392;15.582;2022-10-13T15:55:24;96031.09;;;12.40;79.03
75438;BME280;64015;49.392;15.582;2022-10-13T15:57:52;96039.59;;;12.32;79.24
75438;BME280;64015;49.392;15.582;2022-10-13T16:00:18;96036.66;;;12.33;79.66
75438;BME280;64015;49.392;15.582;2022-10-13T16:02:43;96037.75;;;12.32;80.16
75438;BME280;64015;49.392;15.582;2022-10-13T16:05:11;96031.50;;;12.03;79.63
75438;BME280;64015;49.392;15.582;2022-10-13T16:07:38;96039.44;;;12.03;80.33
75438;BME280;64015;49.392;15.582;2022-10-13T16:10:06;96038.91;;;12.01;81.23
75438;BME280;64015;49.392;15.582;2022-10-13T16:12:31;96040.22;;;11.99;81.46
75438;BME280;64015;49.392;15.582;2022-10-13T16:14:57;96036.00;;;11.98;81.79
75438;BME280;64015;49.392;15.582;2022-10-13T16:17:23;96041.81;;;12.00;80.95
75438;BME280;64015;49.392;15.582;2022-10-13T16:19:48;96046.59;;;11.87;82.10
75438;BME280;64015;49.392;15.582;2022-10-13T16:22:14;96042.94;;;11.83;81.91
75438;BME280;64015;49.392;15.582;2022-10-13T16:24:40;96036.56;;;11.89;81.15
75438;BME280;64015;49.392;15.582;2022-10-13T16:27:06;96042.88;;;12.04;80.34
75438;BME280;64015;49.392;15.582;2022-10-13T16:29:34;96049.25;;;11.87;80.50
75438;BME280;64015;49.392;15.582;2022-10-13T16:31:59;96049.50;;;11.71;81.81
75438;BME280;64015;49.392;15.582;2022-10-13T16:34:26;96049.28;;;11.67;82.24
75438;BME280;64015;49.392;15.582;2022-10-13T16:36:52;96046.91;;;11.76;81.88
75438;BME280;64015;49.392;15.582;2022-10-13T16:39:18;96042.41;;;11.66;83.37
75438;BME280;64015;49.392;15.582;2022-10-13T16:41:43;96045.81;;;11.62;83.38
75438;BME280;64015;49.392;15.582;2022-10-13T16:44:16;96052.97;;;11.66;82.99
75438;BME280;64015;49.392;15.582;2022-10-13T16:46:43;96053.22;;;11.70;82.59
75438;BME280;64015;49.392;15.582;2022-10-13T16:49:09;96049.00;;;11.53;82.99
75438;BME280;64015;49.392;15.582;2022-10-13T16:51:35;96056.13;;;11.53;83.61
75438;BME280;64015;49.392;15.582;2022-10-13T16:54:01;96057.72;;;11.54;83.76
75438;BME280;64015;49.392;15.582;2022-10-13T16:56:27;96054.56;;;11.52;83.46
75438;BME280;64015;49.392;15.582;2022-10-13T16:59:00;96057.47;;;11.55;84.09
75438;BME280;64015;49.392;15.582;2022-10-13T17:01:27;96058.25;;;11.46;84.69
75438;BME280;64015;49.392;15.582;2022-10-13T17:03:53;96064.59;;;11.45;85.41
75438;BME280;64015;49.392;15.582;2022-10-13T17:06:21;96059.59;;;11.38;86.29
75438;BME280;64015;49.392;15.582;2022-10-13T17:08:47;96061.97;;;11.35;86.21
75438;BME280;64015;49.392;15.582;2022-10-13T17:11:24;96053.50;;;11.33;86.61
75438;BME280;64015;49.392;15.582;2022-10-13T17:13:50;96052.97;;;11.31;86.71
75438;BME280;64015;49.392;15.582;2022-10-13T17:16:17;96059.84;;;11.37;86.18
75438;BME280;64015;49.392;15.582;2022-10-13T17:18:43;96055.09;;;11.34;86.70
75438;BME280;64015;49.392;15.582;2022-10-13T17:21:11;96047.97;;;11.24;87.54
75438;BME280;64015;49.392;15.582;2022-10-13T17:23:38;96048.22;;;11.33;87.04
75438;BME280;64015;49.392;15.582;2022-10-13T17:26:07;96052.19;;;11.25;87.58
75438;BME280;64015;49.392;15.582;2022-10-13T17:28:33;96049.28;;;11.27;87.21
75438;BME280;64015;49.392;15.582;2022-10-13T17:31:02;96043.47;;;11.19;88.15
75438;BME280;64015;49.392;15.582;2022-10-13T17:33:30;96041.63;;;11.25;87.63
75438;BME280;64015;49.392;15.582;2022-10-13T17:36:03;96043.72;;;11.23;88.48
75438;BME280;64015;49.392;15.582;2022-10-13T17:38:30;96044.00;;;11.16;88.78
75438;BME280;64015;49.392;15.582;2022-10-13T17:41:13;96045.56;;;11.07;89.65
75438;BME280;64015;49.392;15.582;2022-10-13T17:47:07;96041.09;;;11.08;89.91
75438;BME280;64015;49.392;15.582;2022-10-13T17:49:36;96030.25;;;10.99;90.44
75438;BME280;64015;49.392;15.582;2022-10-13T17:52:02;96036.31;;;11.05;90.43
75438;BME280;64015;49.392;15.582;2022-10-13T17:54:34;96032.91;;;10.99;90.64
75438;BME280;64015;49.392;15.582;2022-10-13T17:57:01;96040.28;;;10.97;91.18
75438;BME280;64015;49.392;15.582;2022-10-13T17:59:27;96031.31;;;10.93;91.67
75438;BME280;64015;49.392;15.582;2022-10-13T18:01:54;96037.91;;;10.91;91.54
75438;BME280;64015;49.392;15.582;2022-10-13T18:04:29;96047.41;;;10.92;91.14
75438;BME280;64015;49.392;15.582;2022-10-13T18:07:20;96039.25;;;11.08;90.63
75438;BME280;64015;49.392;15.582;2022-10-13T18:10:03;96037.13;;;11.10;89.86
75438;BME280;64015;49.392;15.582;2022-10-13T18:12:45;96033.69;;;11.15;89.65
75438;BME280;64015;49.392;15.582;2022-10-13T18:15:12;96038.19;;;11.04;89.99
75438;BME280;64015;49.392;15.582;2022-10-13T18:17:38;96029.75;;;11.02;89.86
75438;BME280;64015;49.392;15.582;2022-10-13T18:20:05;96037.91;;;10.96;90.91
75438;BME280;64015;49.392;15.582;2022-10-13T18:22:31;96032.34;;;10.82;91.01